Time,TemperatureF,DewpointF,PressureIn,WindDirection,WindDirectionDegrees,WindSpeedMPH,WindSpeedGustMPH,Humidity,HourlyPrecipIn,Conditions,Clouds,dailyrainin,SoftwareType,DateUTC
2013-11-21 00:01:00,47.8,46.7,29.72,North,9,0.0,0.0,96,0.05,,,0.00,Wunderground v.1.15,2013-11-21 08:01:00,
2013-11-21 00:07:00,47.9,46.8,29.72,North,9,0.0,0.0,96,0.05,,,0.01,Wunderground v.1.15,2013-11-21 08:07:00,
2013-11-21 00:17:00,47.9,46.8,29.72,North,9,0.0,0.0,96,0.05,,,0.02,Wunderground v.1.15,2013-11-21 08:17:00,
2013-11-21 00:26:00,48.1,47.0,29.72,North,9,0.0,0.0,96,0.05,,,0.02,Wunderground v.1.15,2013-11-21 08:26:00,
2013-11-21 00:37:00,48.2,47.1,29.72,North,9,0.0,0.0,96,0.00,,,0.03,Wunderground v.1.15,2013-11-21 08:37:00,
2013-11-21 00:46:00,48.3,47.2,29.72,North,9,0.0,0.0,96,0.05,,,0.04,Wunderground v.1.15,2013-11-21 08:46:00,
2013-11-21 00:57:00,48.4,47.3,29.72,North,9,0.0,0.0,96,0.05,,,0.04,Wunderground v.1.15,2013-11-21 08:57:00,
2013-11-21 01:07:00,48.4,47.3,29.71,North,9,0.0,0.0,96,0.04,,,0.05,Wunderground v.1.15,2013-11-21 09:07:00,
2013-11-21 01:16:00,48.4,47.3,29.71,NW,325,0.0,0.0,96,0.04,,,0.06,Wunderground v.1.15,2013-11-21 09:16:00,
2013-11-21 01:26:00,48.4,47.3,29.71,NW,325,0.0,0.0,96,0.04,,,0.06,Wunderground v.1.15,2013-11-21 09:26:00,
2013-11-21 01:37:00,48.5,47.4,29.71,NNW,328,0.0,0.0,96,0.00,,,0.07,Wunderground v.1.15,2013-11-21 09:37:00,
2013-11-21 01:46:00,48.5,47.4,29.71,WNW,284,1.0,2.0,96,0.06,,,0.08,Wunderground v.1.15,2013-11-21 09:46:00,
2013-11-21 01:57:00,48.6,47.5,29.71,North,355,0.0,1.0,96,0.08,,,0.09,Wunderground v.1.15,2013-11-21 09:57:00,
2013-11-21 02:07:00,48.6,47.5,29.70,West,281,0.0,2.0,96,0.07,,,0.10,Wunderground v.1.15,2013-11-21 10:07:00,
2013-11-21 02:16:00,48.7,47.6,29.70,West,281,0.0,0.0,96,0.09,,,0.12,Wunderground v.1.15,2013-11-21 10:16:00,
2013-11-21 02:26:00,48.7,47.6,29.70,West,281,0.0,0.0,96,0.09,,,0.13,Wunderground v.1.15,2013-11-21 10:26:00,
2013-11-21 02:31:00,48.7,47.6,29.70,West,281,0.0,0.0,96,0.07,,,0.14,Wunderground v.1.15,2013-11-21 10:31:00,
2013-11-21 02:42:00,48.8,47.7,29.71,West,281,0.0,0.0,96,0.05,,,0.14,Wunderground v.1.15,2013-11-21 10:42:00,
2013-11-21 02:51:00,48.6,47.5,29.71,West,281,0.0,0.0,96,0.05,,,0.15,Wunderground v.1.15,2013-11-21 10:51:00,
2013-11-21 03:01:00,48.7,47.6,29.71,West,281,0.0,0.0,96,0.00,,,0.15,Wunderground v.1.15,2013-11-21 11:01:00,
2013-11-21 03:07:00,48.8,48.0,29.71,West,281,0.0,0.0,97,0.00,,,0.15,Wunderground v.1.15,2013-11-21 11:07:00,
2013-11-21 03:16:00,48.8,48.0,29.71,West,281,0.0,0.0,97,0.00,,,0.15,Wunderground v.1.15,2013-11-21 11:16:00,
2013-11-21 03:27:00,48.7,47.9,29.71,West,281,0.0,0.0,97,0.00,,,0.16,Wunderground v.1.15,2013-11-21 11:27:00,
2013-11-21 03:36:00,48.8,48.0,29.71,West,281,0.0,0.0,97,0.00,,,0.16,Wunderground v.1.15,2013-11-21 11:36:00,
2013-11-21 03:47:00,48.9,48.1,29.71,South,190,0.0,0.0,97,0.00,,,0.16,Wunderground v.1.15,2013-11-21 11:47:00,
2013-11-21 03:57:00,48.8,47.7,29.71,North,355,1.0,2.0,96,0.00,,,0.17,Wunderground v.1.15,2013-11-21 11:57:00,
2013-11-21 04:07:00,48.8,47.7,29.70,WSW,253,1.0,1.0,96,0.11,,,0.18,Wunderground v.1.15,2013-11-21 12:07:00,
2013-11-21 04:16:00,48.5,47.1,29.71,SW,234,0.0,1.0,95,0.07,,,0.19,Wunderground v.1.15,2013-11-21 12:16:00,
2013-11-21 04:22:00,48.4,47.3,29.71,SW,234,0.0,0.0,96,0.05,,,0.19,Wunderground v.1.15,2013-11-21 12:22:00,
2013-11-21 04:31:00,48.4,47.3,29.72,SW,234,0.0,0.0,96,0.00,,,0.19,Wunderground v.1.15,2013-11-21 12:31:00,
2013-11-21 04:42:00,48.4,47.3,29.72,SW,234,0.0,0.0,96,0.00,,,0.19,Wunderground v.1.15,2013-11-21 12:42:00,
2013-11-21 04:51:00,48.3,47.2,29.72,SW,234,0.0,0.0,96,0.00,,,0.20,Wunderground v.1.15,2013-11-21 12:51:00,
2013-11-21 04:56:00,48.3,47.2,29.72,SW,234,0.0,0.0,96,0.00,,,0.20,Wunderground v.1.15,2013-11-21 12:56:00,
2013-11-21 05:01:00,48.3,47.2,29.72,SW,234,0.0,0.0,96,0.00,,,0.20,Wunderground v.1.15,2013-11-21 13:01:00,
2013-11-21 05:07:00,48.2,47.1,29.72,SW,234,0.0,0.0,96,0.00,,,0.20,Wunderground v.1.15,2013-11-21 13:07:00,
2013-11-21 05:16:00,48.1,47.0,29.72,NNW,339,0.0,2.0,96,0.00,,,0.20,Wunderground v.1.15,2013-11-21 13:16:00,
2013-11-21 05:22:00,48.0,46.9,29.72,North,360,1.0,1.0,96,0.00,,,0.20,Wunderground v.1.15,2013-11-21 13:22:00,
2013-11-21 05:31:00,47.9,46.8,29.72,North,355,0.0,0.0,96,0.00,,,0.20,Wunderground v.1.15,2013-11-21 13:31:00,
2013-11-21 05:41:00,47.6,46.2,29.72,NW,304,1.0,1.0,95,0.00,,,0.20,Wunderground v.1.15,2013-11-21 13:41:00,
2013-11-21 05:47:00,47.5,46.1,29.72,North,355,1.0,2.0,95,0.00,,,0.20,Wunderground v.1.15,2013-11-21 13:47:00,
2013-11-21 05:57:00,47.4,46.0,29.72,NNW,332,1.0,1.0,95,0.00,,,0.21,Wunderground v.1.15,2013-11-21 13:57:00,
2013-11-21 06:07:00,47.4,46.0,29.73,NNW,332,0.0,0.0,95,0.00,,,0.21,Wunderground v.1.15,2013-11-21 14:07:00,
2013-11-21 06:16:00,47.4,46.0,29.73,NNW,332,0.0,0.0,95,0.00,,,0.21,Wunderground v.1.15,2013-11-21 14:16:00,
2013-11-21 06:26:00,47.3,46.2,29.73,NNW,332,0.0,0.0,96,0.00,,,0.21,Wunderground v.1.15,2013-11-21 14:26:00,
2013-11-21 06:32:00,47.3,46.2,29.73,NNW,332,0.0,0.0,96,0.00,,,0.21,Wunderground v.1.15,2013-11-21 14:32:00,
2013-11-21 06:41:00,47.2,46.1,29.73,NNW,332,0.0,0.0,96,0.00,,,0.21,Wunderground v.1.15,2013-11-21 14:41:00,
2013-11-21 06:52:00,47.0,45.6,29.74,NNW,332,0.0,0.0,95,0.00,,,0.21,Wunderground v.1.15,2013-11-21 14:52:00,
2013-11-21 07:02:00,47.0,45.9,29.74,NNW,332,0.0,0.0,96,0.00,,,0.21,Wunderground v.1.15,2013-11-21 15:02:00,
2013-11-21 07:07:00,47.1,46.0,29.74,NNW,332,0.0,0.0,96,0.00,,,0.21,Wunderground v.1.15,2013-11-21 15:07:00,
2013-11-21 07:17:00,47.1,46.0,29.74,NNW,332,0.0,0.0,96,0.00,,,0.21,Wunderground v.1.15,2013-11-21 15:17:00,
2013-11-21 07:26:00,47.2,46.1,29.74,NNW,332,0.0,0.0,96,0.00,,,0.21,Wunderground v.1.15,2013-11-21 15:26:00,
2013-11-21 07:32:00,47.2,46.1,29.74,North,355,0.0,0.0,96,0.00,,,0.21,Wunderground v.1.15,2013-11-21 15:32:00,
2013-11-21 07:42:00,47.3,46.2,29.74,North,355,1.0,1.0,96,0.00,,,0.22,Wunderground v.1.15,2013-11-21 15:42:00,
2013-11-21 07:51:00,47.8,46.4,29.75,NNW,348,1.0,4.0,95,0.00,,,0.22,Wunderground v.1.15,2013-11-21 15:51:00,
2013-11-21 07:57:00,47.9,46.5,29.75,NNW,338,1.0,4.0,95,0.00,,,0.22,Wunderground v.1.15,2013-11-21 15:57:00,
2013-11-21 08:07:00,48.2,46.8,29.75,NNW,338,0.0,1.0,95,0.00,,,0.23,Wunderground v.1.15,2013-11-21 16:07:00,
2013-11-21 08:16:00,48.4,47.0,29.75,NNW,338,0.0,0.0,95,0.00,,,0.23,Wunderground v.1.15,2013-11-21 16:16:00,
2013-11-21 08:27:00,48.6,47.2,29.75,NNW,338,0.0,0.0,95,0.00,,,0.23,Wunderground v.1.15,2013-11-21 16:27:00,
2013-11-21 08:32:00,48.7,47.3,29.75,NNW,338,0.0,0.0,95,0.00,,,0.24,Wunderground v.1.15,2013-11-21 16:32:00,
2013-11-21 08:42:00,49.0,47.6,29.75,NNW,338,0.0,0.0,95,0.00,,,0.24,Wunderground v.1.15,2013-11-21 16:42:00,
2013-11-21 08:47:00,49.1,47.7,29.75,NNW,338,0.0,0.0,95,0.00,,,0.24,Wunderground v.1.15,2013-11-21 16:47:00,
2013-11-21 08:56:00,49.4,48.0,29.75,NNW,338,0.0,0.0,95,0.00,,,0.25,Wunderground v.1.15,2013-11-21 16:56:00,
2013-11-21 09:01:00,49.5,48.1,29.75,NNW,338,0.0,0.0,95,0.00,,,0.25,Wunderground v.1.15,2013-11-21 17:01:00,
2013-11-21 09:07:00,49.5,48.1,29.75,NW,305,0.0,0.0,95,0.00,,,0.25,Wunderground v.1.15,2013-11-21 17:07:00,
2013-11-21 09:16:00,50.2,49.1,29.75,NW,305,0.0,0.0,96,0.00,,,0.25,Wunderground v.1.15,2013-11-21 17:16:00,
2013-11-21 09:22:00,50.6,49.2,29.74,NW,306,0.0,0.0,95,0.00,,,0.26,Wunderground v.1.15,2013-11-21 17:22:00,
2013-11-21 09:31:00,51.2,48.7,29.74,NW,306,0.0,0.0,91,0.00,,,0.26,Wunderground v.1.15,2013-11-21 17:31:00,
2013-11-21 09:42:00,51.7,48.9,29.74,NW,306,0.0,0.0,90,0.00,,,0.26,Wunderground v.1.15,2013-11-21 17:42:00,
2013-11-21 09:52:00,52.4,48.9,29.74,NW,306,0.0,0.0,88,0.00,,,0.27,Wunderground v.1.15,2013-11-21 17:52:00,
2013-11-21 10:02:00,52.9,49.7,29.74,SSW,207,0.0,1.0,89,0.00,,,0.27,Wunderground v.1.15,2013-11-21 18:02:00,
2013-11-21 10:07:00,53.0,50.1,29.74,South,176,1.0,4.0,90,0.00,,,0.27,Wunderground v.1.15,2013-11-21 18:07:00,
2013-11-21 10:16:00,53.5,49.7,29.74,SSE,165,1.0,2.0,87,0.00,,,0.28,Wunderground v.1.15,2013-11-21 18:16:00,
2013-11-21 10:22:00,53.8,49.7,29.74,SSE,165,0.0,0.0,86,0.00,,,0.28,Wunderground v.1.15,2013-11-21 18:22:00,
2013-11-21 12:42:00,54.0,49.0,29.71,West,267,1.0,1.0,83,0.00,,,0.30,Wunderground v.1.15,2013-11-21 20:42:00,
2013-11-21 12:52:00,53.8,48.1,29.71,West,267,1.0,1.0,81,0.00,,,0.30,Wunderground v.1.15,2013-11-21 20:52:00,
2013-11-21 12:57:00,54.0,48.6,29.71,West,267,0.0,1.0,82,0.00,,,0.30,Wunderground v.1.15,2013-11-21 20:57:00,
2013-11-21 13:02:00,54.5,49.1,29.70,West,267,0.0,0.0,82,0.00,,,0.30,Wunderground v.1.15,2013-11-21 21:02:00,
2013-11-21 13:07:00,54.9,48.5,29.70,West,267,0.0,1.0,79,0.00,,,0.30,Wunderground v.1.15,2013-11-21 21:07:00,
2013-11-21 13:16:00,55.3,49.2,29.70,South,182,1.0,1.0,80,0.00,,,0.30,Wunderground v.1.15,2013-11-21 21:16:00,
2013-11-21 13:27:00,55.0,48.3,29.70,South,182,1.0,1.0,78,0.00,,,0.30,Wunderground v.1.15,2013-11-21 21:27:00,
2013-11-21 13:32:00,55.1,48.4,29.70,South,182,1.0,4.0,78,0.00,,,0.30,Wunderground v.1.15,2013-11-21 21:32:00,
2013-11-21 13:42:00,55.2,48.1,29.70,South,182,2.0,2.0,77,0.00,,,0.30,Wunderground v.1.15,2013-11-21 21:42:00,
2013-11-21 13:51:00,56.1,48.3,29.70,West,277,1.0,3.0,75,0.00,,,0.30,Wunderground v.1.15,2013-11-21 21:51:00,
2013-11-21 14:02:00,57.0,48.4,29.69,West,277,1.0,4.0,73,0.00,,,0.30,Wunderground v.1.15,2013-11-21 22:02:00,
2013-11-21 14:07:00,56.8,47.9,29.69,West,277,1.0,4.0,72,0.00,,,0.31,Wunderground v.1.15,2013-11-21 22:07:00,
2013-11-21 14:17:00,56.8,47.9,29.69,West,277,0.0,1.0,72,0.00,,,0.31,Wunderground v.1.15,2013-11-21 22:17:00,
2013-11-21 14:27:00,56.7,47.8,29.69,SSE,152,1.0,5.0,72,0.00,,,0.31,Wunderground v.1.15,2013-11-21 22:27:00,
2013-11-21 14:36:00,56.6,48.4,29.70,SSE,162,2.0,6.0,74,0.00,,,0.31,Wunderground v.1.15,2013-11-21 22:36:00,
2013-11-21 14:42:00,56.5,47.9,29.70,SE,144,1.0,3.0,73,0.00,,,0.31,Wunderground v.1.15,2013-11-21 22:42:00,
2013-11-21 14:52:00,56.6,48.8,29.70,South,188,3.0,4.0,75,0.00,,,0.31,Wunderground v.1.15,2013-11-21 22:52:00,
2013-11-21 15:02:00,56.2,49.1,29.70,SSW,213,3.0,3.0,77,0.00,,,0.31,Wunderground v.1.15,2013-11-21 23:02:00,
2013-11-21 15:11:00,55.7,48.6,29.71,West,274,2.0,3.0,77,0.00,,,0.31,Wunderground v.1.15,2013-11-21 23:11:00,
2013-11-21 15:17:00,55.0,48.9,29.71,WNW,284,2.0,5.0,80,0.00,,,0.31,Wunderground v.1.15,2013-11-21 23:17:00,
2013-11-21 15:27:00,55.1,49.0,29.71,West,265,1.0,5.0,80,0.00,,,0.31,Wunderground v.1.15,2013-11-21 23:27:00,
2013-11-21 15:37:00,54.6,48.9,29.72,West,280,3.0,4.0,81,0.00,,,0.31,Wunderground v.1.15,2013-11-21 23:37:00,
2013-11-21 15:46:00,54.0,48.6,29.72,WNW,285,1.0,1.0,82,0.00,,,0.31,Wunderground v.1.15,2013-11-21 23:46:00,
2013-11-21 15:52:00,53.4,48.4,29.72,West,272,2.0,2.0,83,0.00,,,0.31,Wunderground v.1.15,2013-11-21 23:52:00,
2013-11-21 16:02:00,52.8,48.1,29.73,West,272,1.0,1.0,84,0.00,,,0.31,Wunderground v.1.15,2013-11-22 00:02:00,
2013-11-21 16:07:00,52.4,47.7,29.73,West,272,1.0,3.0,84,0.00,,,0.31,Wunderground v.1.15,2013-11-22 00:07:00,
2013-11-21 16:17:00,52.0,47.6,29.73,West,272,0.0,1.0,85,0.00,,,0.31,Wunderground v.1.15,2013-11-22 00:17:00,
2013-11-21 16:27:00,51.9,47.5,29.73,West,272,0.0,0.0,85,0.00,,,0.31,Wunderground v.1.15,2013-11-22 00:27:00,
2013-11-21 16:37:00,51.7,47.6,29.73,West,272,0.0,0.0,86,0.00,,,0.31,Wunderground v.1.15,2013-11-22 00:37:00,
2013-11-21 16:46:00,51.4,47.7,29.73,West,272,0.0,0.0,87,0.00,,,0.31,Wunderground v.1.15,2013-11-22 00:46:00,
2013-11-21 16:51:00,51.3,47.6,29.73,West,271,1.0,1.0,87,0.00,,,0.31,Wunderground v.1.15,2013-11-22 00:51:00,
2013-11-21 16:57:00,51.0,47.3,29.74,West,270,1.0,2.0,87,0.00,,,0.31,Wunderground v.1.15,2013-11-22 00:57:00,
2013-11-21 17:02:00,50.9,47.5,29.74,West,270,1.0,1.0,88,0.00,,,0.31,Wunderground v.1.15,2013-11-22 01:02:00,
2013-11-21 17:07:00,50.7,47.3,29.74,West,270,0.0,1.0,88,0.00,,,0.31,Wunderground v.1.15,2013-11-22 01:07:00,
2013-11-21 17:17:00,50.2,46.8,29.74,SSW,197,0.0,0.0,88,0.00,,,0.31,Wunderground v.1.15,2013-11-22 01:17:00,
2013-11-21 17:26:00,50.0,46.9,29.74,SSW,197,0.0,0.0,89,0.00,,,0.31,Wunderground v.1.15,2013-11-22 01:26:00,
2013-11-21 17:32:00,49.7,46.6,29.73,SSW,197,0.0,0.0,89,0.00,,,0.31,Wunderground v.1.15,2013-11-22 01:32:00,
2013-11-21 17:42:00,49.4,46.6,29.73,SSW,197,0.0,0.0,90,0.00,,,0.31,Wunderground v.1.15,2013-11-22 01:42:00,
2013-11-21 17:52:00,49.0,46.2,29.73,SSW,197,0.0,0.0,90,0.00,,,0.31,Wunderground v.1.15,2013-11-22 01:52:00,
2013-11-21 18:02:00,48.4,45.6,29.73,SSW,197,0.0,0.0,90,0.00,,,0.31,Wunderground v.1.15,2013-11-22 02:02:00,
2013-11-21 18:07:00,48.1,45.6,29.73,SSW,197,0.0,0.0,91,0.00,,,0.31,Wunderground v.1.15,2013-11-22 02:07:00,
2013-11-21 18:12:00,47.9,45.4,29.73,SSW,197,0.0,0.0,91,0.00,,,0.31,Wunderground v.1.15,2013-11-22 02:12:00,
2013-11-21 18:17:00,47.6,45.1,29.73,SSW,197,0.0,0.0,91,0.00,,,0.31,Wunderground v.1.15,2013-11-22 02:17:00,
2013-11-21 18:26:00,47.1,44.9,29.72,SSW,197,0.0,0.0,92,0.00,,,0.31,Wunderground v.1.15,2013-11-22 02:26:00,
2013-11-21 18:37:00,46.7,44.5,29.72,SSW,197,0.0,0.0,92,0.00,,,0.31,Wunderground v.1.15,2013-11-22 02:37:00,
2013-11-21 18:42:00,46.5,44.6,29.72,SSW,197,0.0,0.0,93,0.00,,,0.31,Wunderground v.1.15,2013-11-22 02:42:00,
2013-11-21 18:51:00,46.1,44.2,29.72,SSW,197,0.0,0.0,93,0.00,,,0.31,Wunderground v.1.15,2013-11-22 02:51:00,
2013-11-21 19:02:00,46.1,44.5,29.72,SSW,197,0.0,0.0,94,0.00,,,0.31,Wunderground v.1.15,2013-11-22 03:02:00,
2013-11-21 19:07:00,46.0,44.4,29.72,SSW,197,0.0,0.0,94,0.00,,,0.31,Wunderground v.1.15,2013-11-22 03:07:00,
2013-11-21 19:17:00,45.7,44.1,29.73,SSW,197,0.0,0.0,94,0.00,,,0.31,Wunderground v.1.15,2013-11-22 03:17:00,
2013-11-21 19:27:00,45.8,44.4,29.73,SW,227,0.0,0.0,95,0.00,,,0.31,Wunderground v.1.15,2013-11-22 03:27:00,
2013-11-21 19:32:00,45.8,44.4,29.73,SW,227,0.0,0.0,95,0.00,,,0.31,Wunderground v.1.15,2013-11-22 03:32:00,
2013-11-21 19:37:00,45.5,43.9,29.74,SW,227,0.0,0.0,94,0.00,,,0.31,Wunderground v.1.15,2013-11-22 03:37:00,
2013-11-21 19:47:00,45.3,43.7,29.74,SW,227,0.0,0.0,94,0.00,,,0.31,Wunderground v.1.15,2013-11-22 03:47:00,
2013-11-21 19:56:00,44.8,43.2,29.75,SW,227,0.0,0.0,94,0.00,,,0.31,Wunderground v.1.15,2013-11-22 03:56:00,
2013-11-21 20:01:00,44.7,43.1,29.75,SW,227,0.0,0.0,94,0.00,,,0.31,Wunderground v.1.15,2013-11-22 04:01:00,
2013-11-21 20:11:00,44.9,43.6,29.75,SE,136,0.0,0.0,95,0.00,,,0.31,Wunderground v.1.15,2013-11-22 04:11:00,
2013-11-21 20:22:00,45.1,44.0,29.75,SE,136,0.0,0.0,96,0.00,,,0.31,Wunderground v.1.15,2013-11-22 04:22:00,
2013-11-21 20:32:00,45.1,44.0,29.76,SE,144,0.0,0.0,96,0.00,,,0.31,Wunderground v.1.15,2013-11-22 04:32:00,
2013-11-21 20:41:00,44.9,43.6,29.76,SE,144,0.0,0.0,95,0.00,,,0.31,Wunderground v.1.15,2013-11-22 04:41:00,
2013-11-21 20:47:00,44.7,43.4,29.76,NNE,26,0.0,0.0,95,0.00,,,0.31,Wunderground v.1.15,2013-11-22 04:47:00,
2013-11-21 20:57:00,44.3,43.0,29.77,SW,232,0.0,0.0,95,0.00,,,0.31,Wunderground v.1.15,2013-11-22 04:57:00,
2013-11-21 21:02:00,44.0,42.7,29.77,SW,232,0.0,0.0,95,0.00,,,0.31,Wunderground v.1.15,2013-11-22 05:02:00,
2013-11-21 21:07:00,43.6,42.3,29.77,SW,232,0.0,0.0,95,0.00,,,0.31,Wunderground v.1.15,2013-11-22 05:07:00,
2013-11-21 21:11:00,43.7,42.4,29.77,SW,232,0.0,0.0,95,0.00,,,0.31,Wunderground v.1.15,2013-11-22 05:11:00,
2013-11-21 21:17:00,43.5,42.2,29.77,SW,232,0.0,0.0,95,0.00,,,0.31,Wunderground v.1.15,2013-11-22 05:17:00,
2013-11-21 21:27:00,43.1,41.8,29.78,SW,232,0.0,0.0,95,0.00,,,0.31,Wunderground v.1.15,2013-11-22 05:27:00,
2013-11-21 21:36:00,42.7,41.4,29.78,SW,232,0.0,1.0,95,0.00,,,0.31,Wunderground v.1.15,2013-11-22 05:36:00,
2013-11-21 21:42:00,42.7,41.4,29.78,SW,232,0.0,0.0,95,0.00,,,0.31,Wunderground v.1.15,2013-11-22 05:42:00,
2013-11-21 21:47:00,42.8,41.7,29.78,SW,232,0.0,0.0,96,0.00,,,0.31,Wunderground v.1.15,2013-11-22 05:47:00,
2013-11-21 21:57:00,42.6,41.3,29.79,SW,232,0.0,0.0,95,0.00,,,0.31,Wunderground v.1.15,2013-11-22 05:57:00,
2013-11-21 22:11:00,42.0,40.7,29.79,SW,232,0.0,0.0,95,0.00,,,0.31,Wunderground v.1.15,2013-11-22 06:11:00,
2013-11-21 22:17:00,41.9,40.6,29.80,SW,232,0.0,0.0,95,0.00,,,0.31,Wunderground v.1.15,2013-11-22 06:17:00,
2013-11-21 22:26:00,41.8,40.7,29.80,SW,232,0.0,0.0,96,0.00,,,0.31,Wunderground v.1.15,2013-11-22 06:26:00,
2013-11-21 22:31:00,41.8,40.7,29.80,SW,232,0.0,0.0,96,0.00,,,0.31,Wunderground v.1.15,2013-11-22 06:31:00,
2013-11-21 22:37:00,41.7,40.6,29.81,SW,232,0.0,0.0,96,0.00,,,0.31,Wunderground v.1.15,2013-11-22 06:37:00,
2013-11-21 22:47:00,41.6,40.5,29.81,SW,232,0.0,0.0,96,0.00,,,0.31,Wunderground v.1.15,2013-11-22 06:47:00,
2013-11-21 22:56:00,41.3,40.2,29.82,SW,232,0.0,0.0,96,0.00,,,0.31,Wunderground v.1.15,2013-11-22 06:56:00,
2013-11-21 23:02:00,41.1,40.0,29.82,SW,232,0.0,0.0,96,0.00,,,0.31,Wunderground v.1.15,2013-11-22 07:02:00,
2013-11-21 23:07:00,41.0,39.7,29.82,SW,232,0.0,0.0,95,0.00,,,0.31,Wunderground v.1.15,2013-11-22 07:07:00,
2013-11-21 23:17:00,41.1,40.0,29.82,SW,232,0.0,0.0,96,0.00,,,0.31,Wunderground v.1.15,2013-11-22 07:17:00,
2013-11-21 23:27:00,41.5,40.4,29.82,SW,232,0.0,0.0,96,0.00,,,0.31,Wunderground v.1.15,2013-11-22 07:27:00,
2013-11-21 23:36:00,41.9,41.1,29.83,SW,232,0.0,0.0,97,0.00,,,0.31,Wunderground v.1.15,2013-11-22 07:36:00,
2013-11-21 23:47:00,42.4,41.6,29.83,SW,232,0.0,0.0,97,0.00,,,0.31,Wunderground v.1.15,2013-11-22 07:47:00,
2013-11-21 23:57:00,43.5,42.7,29.83,NW,317,0.0,1.0,97,0.00,,,0.31,Wunderground v.1.15,2013-11-22 07:57:00,